createdAt,value
2023-04-14T00:02:03.041Z,98128.84
2023-04-14T00:04:30.889Z,98118.06
2023-04-14T00:06:57.447Z,98108.66
2023-04-14T00:09:24.504Z,98103.19
2023-04-14T00:11:51.094Z,98101.56
2023-04-14T00:14:19.349Z,98098.16
2023-04-14T00:16:45.761Z,98105.59
2023-04-14T00:19:12.859Z,98104.13
2023-04-14T00:21:39.257Z,98112.41
2023-04-14T00:24:07.158Z,98113.22
2023-04-14T00:26:33.855Z,98114.88
2023-04-14T00:29:00.397Z,98119.88
2023-04-14T00:31:27.348Z,98113.94
2023-04-14T00:33:53.745Z,98126.13
2023-04-14T00:36:20.169Z,98124.47
2023-04-14T00:38:46.872Z,98126.09
2023-04-14T00:41:13.276Z,98120.97
2023-04-14T00:43:39.616Z,98120.16
2023-04-14T00:46:06.379Z,98134.69
2023-04-14T00:48:32.896Z,98131.44
2023-04-14T00:50:59.530Z,98143.94
2023-04-14T00:53:26.592Z,98144.97
2023-04-14T00:55:53.074Z,98146.94
2023-04-14T00:58:19.839Z,98151.28
2023-04-14T01:00:48.844Z,98166.47
2023-04-14T01:03:15.435Z,98154.63
2023-04-14T01:05:41.929Z,98164.19
2023-04-14T01:08:08.455Z,98172.44
2023-04-14T01:10:40.951Z,98167.69
2023-04-14T01:13:39.696Z,98171.75
2023-04-14T01:16:28.415Z,98167.13
2023-04-14T01:19:17.053Z,98180.22
2023-04-14T01:21:49.860Z,98181.38
2023-04-14T01:24:28.604Z,98180.56
2023-04-14T01:27:07.916Z,98185.31
2023-04-14T01:29:44.274Z,98191.25
2023-04-14T01:32:14.733Z,98195.19
2023-04-14T01:34:50.374Z,98199.31
2023-04-14T01:37:27.701Z,98201.31
2023-04-14T01:39:55.118Z,98207.13
2023-04-14T01:42:30.004Z,98202.81
2023-04-14T01:45:02.417Z,98214.19
2023-04-14T01:47:30.523Z,98214.03
2023-04-14T01:49:59.356Z,98218.84
2023-04-14T01:52:27.287Z,98214.19
2023-04-14T01:54:55.862Z,98216.69
2023-04-14T01:57:24.338Z,98218.81
2023-04-14T01:59:57.879Z,98219.94
2023-04-14T02:02:26.015Z,98210.53
2023-04-14T02:04:55.004Z,98209.84
2023-04-14T02:07:24.638Z,98224.03
2023-04-14T02:09:53.728Z,98225.22
2023-04-14T02:12:23.629Z,98227.06
2023-04-14T02:14:51.616Z,98227.25
2023-04-14T02:17:19.962Z,98239.31
2023-04-14T02:19:48.171Z,98245.44
2023-04-14T02:22:15.000Z,98247.41
2023-04-14T02:24:41.702Z,98240.47
2023-04-14T02:27:15.817Z,98240.47
2023-04-14T02:29:48.364Z,98243.81
2023-04-14T02:32:27.134Z,98246.63
2023-04-14T02:35:10.524Z,98241.84
2023-04-14T02:37:41.576Z,98247.00
2023-04-14T02:40:15.377Z,98240.41
2023-04-14T02:42:48.542Z,98235.59
2023-04-14T02:45:22.967Z,98236.94
2023-04-14T02:47:54.695Z,98235.28
2023-04-14T02:50:22.599Z,98230.50
2023-04-14T02:52:52.219Z,98225.69
2023-04-14T02:55:20.431Z,98219.09
2023-04-14T02:57:47.917Z,98224.03
2023-04-14T03:00:15.425Z,98221.25
2023-04-14T03:02:43.783Z,98218.31
2023-04-14T03:05:10.939Z,98213.31
2023-04-14T03:07:38.107Z,98215.13
2023-04-14T03:10:08.563Z,98215.47
2023-04-14T03:12:36.888Z,98213.50
2023-04-14T03:15:03.823Z,98225.75
2023-04-14T03:17:32.193Z,98231.53
2023-04-14T03:19:59.373Z,98233.34
2023-04-14T03:22:27.140Z,98236.19
2023-04-14T03:24:54.136Z,98233.19
2023-04-14T03:27:22.654Z,98233.22
2023-04-14T03:29:53.570Z,98228.09
2023-04-14T03:32:22.091Z,98233.53
2023-04-14T03:34:53.359Z,98233.03
2023-04-14T03:37:24.737Z,98235.38
2023-04-14T03:39:52.263Z,98231.91
2023-04-14T03:42:20.186Z,98234.38
2023-04-14T03:44:47.185Z,98235.22
2023-04-14T03:47:13.850Z,98235.38
2023-04-14T03:49:41.503Z,98239.66
2023-04-14T03:52:12.215Z,98233.41
2023-04-14T03:54:41.711Z,98234.88
2023-04-14T03:57:10.462Z,98238.16
2023-04-14T03:59:39.177Z,98234.53
2023-04-14T04:02:07.449Z,98231.25
2023-04-14T04:04:35.639Z,98227.41
2023-04-14T04:07:02.907Z,98222.13
2023-04-14T04:09:33.453Z,98219.50
2023-04-14T04:12:03.510Z,98211.56
2023-04-14T04:14:32.608Z,98206.44
2023-04-14T04:17:05.683Z,98205.13
2023-04-14T04:19:33.411Z,98204.94
2023-04-14T04:22:01.332Z,98206.22
2023-04-14T04:24:31.912Z,98204.72
2023-04-14T04:26:58.975Z,98201.63
2023-04-14T04:29:26.677Z,98209.69
2023-04-14T04:31:55.194Z,98205.59
2023-04-14T04:34:22.703Z,98208.22
2023-04-14T04:36:49.746Z,98209.84
2023-04-14T04:39:16.137Z,98212.81
2023-04-14T04:41:42.695Z,98229.28
2023-04-14T04:44:09.095Z,98230.22
2023-04-14T04:46:54.933Z,98222.81
2023-04-14T04:49:22.228Z,98230.03
2023-04-14T04:51:49.236Z,98229.91
2023-04-14T04:54:18.722Z,98225.13
2023-04-14T04:56:45.468Z,98234.53
2023-04-14T04:59:13.146Z,98233.22
2023-04-14T05:01:39.978Z,98239.31
2023-04-14T05:04:07.106Z,98242.91
2023-04-14T05:06:36.943Z,98242.59
2023-04-14T05:09:03.589Z,98251.34
2023-04-14T05:11:30.358Z,98247.69
2023-04-14T05:13:57.059Z,98243.09
2023-04-14T05:16:24.026Z,98239.31
2023-04-14T05:18:50.561Z,98241.78
2023-04-14T05:21:17.285Z,98241.97
2023-04-14T05:23:45.001Z,98242.59
2023-04-14T05:28:42.918Z,98255.31
2023-04-14T05:31:09.420Z,98267.69
2023-04-14T05:33:35.998Z,98267.22
2023-04-14T05:36:02.436Z,98277.63
2023-04-14T05:38:29.128Z,98278.31
2023-04-14T05:40:55.554Z,98278.50
2023-04-14T05:43:22.110Z,98273.91
2023-04-14T05:45:48.940Z,98288.94
2023-04-14T05:48:15.572Z,98295.03
2023-04-14T05:50:41.924Z,98312.22
2023-04-14T05:53:08.440Z,98313.88
2023-04-14T05:55:34.850Z,98322.50
2023-04-14T05:58:01.516Z,98334.41
2023-04-14T06:00:28.547Z,98341.81
2023-04-14T06:02:55.179Z,98354.56
2023-04-14T06:05:21.981Z,98377.34
2023-04-14T06:07:48.616Z,98390.72
2023-04-14T06:10:15.422Z,98421.25
2023-04-14T06:12:42.152Z,98450.81
2023-04-14T06:15:09.117Z,98481.91
2023-04-14T06:17:35.578Z,98515.47
2023-04-14T06:20:02.288Z,98540.25
2023-04-14T06:22:28.921Z,98568.69
2023-04-14T06:24:56.351Z,98595.47
2023-04-14T06:27:23.703Z,98621.94
2023-04-14T06:29:50.557Z,98641.97
2023-04-14T06:32:17.463Z,98650.25
2023-04-14T06:34:44.025Z,98651.22
2023-04-14T06:37:10.541Z,98662.34
2023-04-14T06:39:37.131Z,98663.50
2023-04-14T06:42:03.697Z,98663.97
2023-04-14T06:44:30.244Z,98674.59
2023-04-14T06:46:57.239Z,98677.56
2023-04-14T06:49:23.881Z,98682.16
2023-04-14T06:51:50.418Z,98688.56
2023-04-14T06:54:16.985Z,98835.69
2023-04-14T06:56:43.394Z,98788.81
2023-04-14T06:59:10.116Z,98802.38
2023-04-14T07:01:36.879Z,98800.38
2023-04-14T07:04:06.787Z,98776.75
2023-04-14T07:06:33.864Z,98717.91
2023-04-14T07:09:00.236Z,98655.72
2023-04-14T07:11:26.866Z,98644.94
2023-04-14T07:13:53.160Z,98673.25
2023-04-14T07:16:19.791Z,98698.88
2023-04-14T07:18:46.292Z,98706.59
2023-04-14T07:21:12.812Z,98701.25
2023-04-14T07:23:39.477Z,98648.03
2023-04-14T07:26:06.293Z,98601.75
2023-04-14T07:28:32.853Z,98565.41
2023-04-14T07:30:59.421Z,98532.53
2023-04-14T07:33:26.172Z,98472.00
2023-04-14T07:36:01.119Z,98478.22
2023-04-14T07:38:29.144Z,98474.78
2023-04-14T07:40:55.467Z,98473.53
2023-04-14T07:43:21.958Z,98472.50
2023-04-14T07:45:48.280Z,98458.22
2023-04-14T07:48:14.682Z,98453.69
2023-04-14T07:50:41.221Z,98482.06
2023-04-14T07:53:07.654Z,98477.78
2023-04-14T07:55:34.167Z,98434.41
2023-04-14T07:58:00.979Z,98390.84
2023-04-14T08:00:27.346Z,98343.22
2023-04-14T08:02:54.182Z,98342.84
2023-04-14T08:05:20.923Z,98348.91
2023-04-14T08:07:47.340Z,98321.75
2023-04-14T08:10:13.778Z,98241.00
2023-04-14T08:12:40.136Z,98252.88
2023-04-14T08:15:07.084Z,98234.19
2023-04-14T08:17:33.483Z,98184.09
2023-04-14T08:20:00.215Z,98186.72
2023-04-14T08:22:26.963Z,98155.66
2023-04-14T08:24:54.969Z,98149.75
2023-04-14T08:27:21.518Z,98139.56
2023-04-14T08:29:48.845Z,98161.75
2023-04-14T08:32:15.278Z,98173.13
2023-04-14T08:35:38.576Z,98137.91
2023-04-14T08:37:30.510Z,98157.78
2023-04-14T08:39:58.281Z,98178.94
2023-04-14T08:42:25.002Z,98145.47
2023-04-14T08:44:51.703Z,98132.94
2023-04-14T08:47:19.987Z,98133.25
2023-04-14T08:49:55.938Z,98143.09
2023-04-14T08:52:27.287Z,98125.84
2023-04-14T08:54:57.087Z,98132.81
2023-04-14T08:57:25.848Z,98109.91
2023-04-14T08:59:54.509Z,98086.16
2023-04-14T09:02:21.757Z,98083.84
2023-04-14T09:04:49.538Z,98091.63
2023-04-14T09:07:17.352Z,98083.06
2023-04-14T09:09:44.834Z,98065.94
2023-04-14T09:12:13.551Z,98071.28
2023-04-14T09:14:40.353Z,98064.06
2023-04-14T09:17:07.470Z,98060.63
2023-04-14T09:19:34.874Z,98052.59
2023-04-14T09:22:02.624Z,98048.03
2023-04-14T09:24:32.395Z,98046.59
2023-04-14T09:27:04.919Z,98036.53
2023-04-14T09:29:35.484Z,98034.69
2023-04-14T09:32:05.300Z,98036.09
2023-04-14T09:34:31.886Z,98032.94
2023-04-14T09:37:07.552Z,98038.63
2023-04-14T09:39:35.434Z,98031.28
2023-04-14T09:42:03.412Z,98034.69
2023-04-14T09:44:31.710Z,98030.16
2023-04-14T09:47:06.839Z,98035.38
2023-04-14T09:49:34.796Z,98033.16
2023-04-14T09:52:09.192Z,98026.28
2023-04-14T09:54:36.096Z,98012.78
2023-04-14T09:57:02.832Z,98027.03
2023-04-14T09:59:30.633Z,98022.28
2023-04-14T10:01:59.189Z,98017.31
2023-04-14T10:04:29.123Z,98019.66
2023-04-14T10:06:57.485Z,98016.75
2023-04-14T10:09:27.944Z,98006.75
2023-04-14T10:12:12.334Z,97998.13
2023-04-14T10:14:40.527Z,97996.75
2023-04-14T10:17:07.708Z,97989.78
2023-04-14T10:19:37.602Z,97990.78
2023-04-14T10:22:06.014Z,97990.38
2023-04-14T10:24:35.355Z,97990.34
2023-04-14T10:27:03.480Z,97982.16
2023-04-14T10:29:30.950Z,97978.47
2023-04-14T10:32:06.613Z,97973.16
2023-04-14T10:34:35.492Z,97970.63
2023-04-14T10:37:19.542Z,97968.53
2023-04-14T10:39:55.049Z,97961.56
2023-04-14T10:42:29.246Z,97960.38
2023-04-14T10:45:06.659Z,97961.22
2023-04-14T10:47:33.683Z,97966.81
2023-04-14T10:50:11.119Z,97969.94
2023-04-14T10:52:37.806Z,97961.16
2023-04-14T10:55:06.187Z,97959.00
2023-04-14T10:57:38.302Z,97946.31
2023-04-14T11:00:25.741Z,97943.13
2023-04-14T11:03:01.880Z,97941.84
2023-04-14T11:05:29.806Z,97936.25
2023-04-14T11:07:58.756Z,97943.75
2023-04-14T11:10:30.916Z,97936.13
2023-04-14T11:12:58.195Z,97944.91
2023-04-14T11:15:42.718Z,97944.53
2023-04-14T11:18:30.276Z,97934.56
2023-04-14T11:21:16.260Z,97930.66
2023-04-14T11:23:43.114Z,97922.56
2023-04-14T11:26:11.138Z,97914.53
2023-04-14T11:28:44.821Z,97929.44
2023-04-14T11:31:13.155Z,97936.00
2023-04-14T11:33:40.802Z,97931.81
2023-04-14T11:36:09.679Z,97936.56
2023-04-14T11:38:37.088Z,97935.94
2023-04-14T11:41:04.232Z,97931.50
2023-04-14T11:43:30.884Z,97936.53
2023-04-14T11:46:01.159Z,97923.25
2023-04-14T11:48:29.396Z,97923.63
2023-04-14T11:50:55.903Z,97919.06
2023-04-14T11:53:22.355Z,97915.81
2023-04-14T11:55:51.146Z,97914.75
2023-04-14T11:58:22.658Z,97909.22
2023-04-14T12:00:49.659Z,97911.03
2023-04-14T12:03:16.732Z,97906.31
2023-04-14T12:05:43.879Z,97899.38
2023-04-14T12:08:12.006Z,97894.50
2023-04-14T12:10:40.681Z,97878.34
2023-04-14T12:13:11.476Z,97887.94
2023-04-14T12:15:41.824Z,97879.94
2023-04-14T12:18:13.367Z,97883.13
2023-04-14T12:20:45.834Z,97873.72
2023-04-14T12:23:13.099Z,97871.13
2023-04-14T12:25:40.160Z,97871.13
2023-04-14T12:28:06.811Z,97872.31
2023-04-14T12:30:34.340Z,97873.16
2023-04-14T12:33:08.952Z,97869.78
2023-04-14T12:35:36.640Z,97851.03
2023-04-14T12:38:11.927Z,97848.13
2023-04-14T12:40:42.734Z,97852.81
2023-04-14T12:43:09.563Z,97862.50
2023-04-14T12:45:40.263Z,97848.91
2023-04-14T12:48:06.977Z,97853.59
2023-04-14T12:50:33.496Z,97850.81
2023-04-14T12:53:00.624Z,97846.53
2023-04-14T12:55:31.742Z,97839.69
2023-04-14T12:57:59.100Z,97839.69
2023-04-14T13:00:27.576Z,97839.56
2023-04-14T13:02:55.817Z,97834.22
2023-04-14T13:05:23.121Z,97831.69
2023-04-14T13:07:49.720Z,97837.13
2023-04-14T13:10:16.495Z,97822.75
2023-04-14T13:12:42.991Z,97816.63
2023-04-14T13:16:12.011Z,97811.44
2023-04-14T13:17:56.849Z,97806.00
2023-04-14T13:20:23.395Z,97797.84
2023-04-14T13:22:51.078Z,97800.28
2023-04-14T13:25:17.810Z,97788.91
2023-04-14T13:27:44.358Z,97788.75
2023-04-14T13:30:11.929Z,97778.59
2023-04-14T13:32:38.539Z,97783.59
2023-04-14T13:35:05.673Z,97788.25
2023-04-14T13:37:32.140Z,97778.22
2023-04-14T13:39:58.716Z,97773.78
2023-04-14T13:42:25.263Z,97773.28
2023-04-14T13:44:51.888Z,97771.16
2023-04-14T13:47:18.462Z,97771.72
2023-04-14T13:49:45.074Z,97761.97
2023-04-14T13:52:11.514Z,97763.31
2023-04-14T13:54:37.961Z,97758.22
2023-04-14T13:57:04.814Z,97749.09
2023-04-14T13:59:31.441Z,97741.69
2023-04-14T14:01:58.134Z,97750.47
2023-04-14T14:04:25.279Z,97755.03
2023-04-14T14:06:52.075Z,97755.44
2023-04-14T14:09:18.524Z,97755.34
2023-04-14T14:11:45.035Z,97743.44
2023-04-14T14:14:11.988Z,97744.72
2023-04-14T14:16:38.829Z,97740.00
2023-04-14T14:19:05.379Z,97739.13
2023-04-14T14:21:36.991Z,97747.97
2023-04-14T14:24:03.747Z,97737.44
2023-04-14T14:26:30.642Z,97738.00
2023-04-14T14:28:57.191Z,97735.94
2023-04-14T14:31:23.816Z,97737.22
2023-04-14T14:33:50.273Z,97739.50
2023-04-14T14:36:17.166Z,97737.19
2023-04-14T14:38:43.588Z,97730.69
2023-04-14T14:41:10.127Z,97735.78
2023-04-14T14:43:36.808Z,97739.28
2023-04-14T14:46:03.640Z,97741.34
2023-04-14T14:48:30.230Z,97742.22
2023-04-14T14:50:56.738Z,97744.63
2023-04-14T14:53:23.395Z,97734.25
2023-04-14T14:55:49.928Z,97742.94
2023-04-14T14:58:17.122Z,97737.56
2023-04-14T15:00:43.630Z,97737.59
2023-04-14T15:03:10.386Z,97734.19
2023-04-14T15:05:39.866Z,97726.44
2023-04-14T15:08:06.772Z,97729.53
2023-04-14T15:10:33.387Z,97728.91
2023-04-14T15:13:01.249Z,97726.94
2023-04-14T15:15:27.777Z,97735.13
2023-04-14T15:17:54.672Z,97729.75
2023-04-14T15:20:21.399Z,97730.50
2023-04-14T15:22:48.571Z,97723.44
2023-04-14T15:25:26.620Z,97728.75
2023-04-14T15:27:56.012Z,97731.63
2023-04-14T15:30:24.005Z,97728.75
2023-04-14T15:32:51.138Z,97732.31
2023-04-14T15:35:17.952Z,97724.22
2023-04-14T15:37:44.472Z,97734.47
2023-04-14T15:40:11.291Z,97723.75
2023-04-14T15:42:40.938Z,97722.66
2023-04-14T15:45:10.016Z,97715.75
2023-04-14T15:47:36.568Z,97713.16
2023-04-14T15:50:07.533Z,97719.59
2023-04-14T15:52:37.086Z,97716.78
2023-04-14T15:55:03.837Z,97722.09
2023-04-14T15:57:30.316Z,97710.19
2023-04-14T15:59:57.179Z,97705.59
2023-04-14T16:02:26.658Z,97716.09
2023-04-14T16:04:53.505Z,97714.50
2023-04-14T16:07:19.960Z,97710.72
2023-04-14T16:09:46.609Z,97718.78
2023-04-14T16:12:13.027Z,97718.03
2023-04-14T16:14:39.817Z,97716.50
2023-04-14T16:17:06.511Z,97721.06
2023-04-14T16:19:33.246Z,97722.06
2023-04-14T16:21:59.668Z,97731.81
2023-04-14T16:24:26.499Z,97725.06
2023-04-14T16:26:52.974Z,97730.03
2023-04-14T16:29:19.480Z,97720.84
2023-04-14T16:31:46.389Z,97726.84
2023-04-14T16:34:12.930Z,97726.78
2023-04-14T16:36:39.808Z,97729.69
2023-04-14T16:39:06.381Z,97722.56
2023-04-14T16:41:32.761Z,97720.66
2023-04-14T16:43:59.353Z,97719.81
2023-04-14T16:46:26.355Z,97722.44
2023-04-14T16:48:52.903Z,97732.25
2023-04-14T16:51:19.391Z,97727.03
2023-04-14T16:53:45.840Z,97733.22
2023-04-14T16:56:12.429Z,97737.84
2023-04-14T16:58:39.046Z,97729.69
2023-04-14T17:01:06.871Z,97733.19
2023-04-14T17:03:34.206Z,97732.78
2023-04-14T17:06:00.945Z,97732.13
2023-04-14T17:08:27.342Z,97732.03
2023-04-14T17:10:53.929Z,97741.63
2023-04-14T17:13:20.533Z,97733.25
2023-04-14T17:15:55.672Z,97734.66
2023-04-14T17:18:30.261Z,97731.88
2023-04-14T17:20:57.912Z,97728.28
2023-04-14T17:23:24.682Z,97739.16
2023-04-14T17:25:52.179Z,97733.69
2023-04-14T17:28:18.932Z,97736.16
2023-04-14T17:30:45.343Z,97751.34
2023-04-14T17:33:11.807Z,97749.81
2023-04-14T17:35:38.254Z,97741.91
2023-04-14T17:38:04.840Z,97735.16
2023-04-14T17:40:32.491Z,97739.03
2023-04-14T17:42:58.926Z,97734.59
2023-04-14T17:45:25.994Z,97735.66
2023-04-14T17:47:53.312Z,97742.94
2023-04-14T17:50:22.752Z,97737.72
2023-04-14T17:52:50.847Z,97744.59
2023-04-14T17:55:18.057Z,97742.25
2023-04-14T17:57:44.923Z,97740.16
2023-04-14T18:00:12.045Z,97743.63
2023-04-14T18:02:38.822Z,97749.06
2023-04-14T18:05:08.683Z,97748.31
2023-04-14T18:07:35.575Z,97745.59
2023-04-14T18:10:02.785Z,97749.19
2023-04-14T18:12:29.219Z,97745.31
2023-04-14T18:14:55.595Z,97744.28
2023-04-14T18:17:22.437Z,97740.44
2023-04-14T18:19:48.930Z,97743.63
2023-04-14T18:22:15.690Z,97741.78
2023-04-14T18:29:41.284Z,97743.75
2023-04-14T18:32:07.657Z,97748.25
2023-04-14T18:34:34.079Z,97742.53
2023-04-14T18:37:01.091Z,97745.28
2023-04-14T18:39:27.866Z,97747.50
2023-04-14T18:41:54.331Z,97746.09
2023-04-14T18:44:20.822Z,97751.28
2023-04-14T18:46:47.308Z,97743.72
2023-04-14T18:49:13.704Z,97751.84
2023-04-14T18:51:40.159Z,97744.19
2023-04-14T18:54:07.125Z,97753.28
2023-04-14T18:56:33.636Z,97755.38
2023-04-14T18:59:00.424Z,97755.28
2023-04-14T19:01:27.225Z,97760.13
2023-04-14T19:03:53.814Z,97766.94
2023-04-14T19:06:20.652Z,97763.13
2023-04-14T19:08:47.022Z,97772.22
2023-04-14T19:11:13.444Z,97781.31
2023-04-14T19:13:40.374Z,97782.34
2023-04-14T19:16:07.827Z,97788.75
2023-04-14T19:18:35.255Z,97798.81
2023-04-14T19:21:02.085Z,97806.78
2023-04-14T19:23:29.002Z,97819.09
2023-04-14T19:25:55.707Z,97818.09
2023-04-14T19:28:22.242Z,97826.28
2023-04-14T19:30:48.852Z,97841.25
2023-04-14T19:33:15.354Z,97855.56
2023-04-14T19:35:41.766Z,97862.94
2023-04-14T19:38:12.323Z,97868.88
2023-04-14T19:40:46.845Z,97877.28
2023-04-14T19:43:27.087Z,97884.63
2023-04-14T19:45:57.723Z,97885.03
2023-04-14T19:48:24.724Z,97895.44
2023-04-14T19:50:55.455Z,97887.22
2023-04-14T19:53:23.994Z,97896.63
2023-04-14T19:55:51.762Z,97900.06
2023-04-14T19:58:19.628Z,97914.38
2023-04-14T20:00:48.370Z,97922.28
2023-04-14T20:03:15.649Z,97932.06
2023-04-14T20:05:42.198Z,97935.34
2023-04-14T20:08:08.918Z,97944.09
2023-04-14T20:10:36.053Z,97957.34
2023-04-14T20:13:02.644Z,97958.94
2023-04-14T20:15:29.132Z,97971.97
2023-04-14T20:17:55.776Z,97991.16
2023-04-14T20:20:22.462Z,97998.88
2023-04-14T20:22:49.016Z,98006.59
2023-04-14T20:25:15.580Z,98020.25
2023-04-14T20:27:42.601Z,98026.78
2023-04-14T20:30:09.512Z,98038.78
2023-04-14T20:32:36.086Z,98045.81
2023-04-14T20:35:02.508Z,98061.31
2023-04-14T20:37:30.181Z,98069.16
2023-04-14T20:39:57.071Z,98076.09
2023-04-14T20:42:26.153Z,98081.31
2023-04-14T20:44:52.811Z,98095.22
2023-04-14T20:47:19.313Z,98094.06
2023-04-14T20:49:45.808Z,98105.31
2023-04-14T20:52:12.502Z,98120.41
2023-04-14T20:54:38.909Z,98126.97
2023-04-14T20:57:05.495Z,98132.94
2023-04-14T20:59:32.934Z,98130.94
2023-04-14T21:01:59.516Z,98147.38
2023-04-14T21:04:26.592Z,98155.72
2023-04-14T21:06:53.448Z,98173.72
2023-04-14T21:09:20.011Z,98187.59
2023-04-14T21:11:46.530Z,98211.81
2023-04-14T21:15:28.893Z,98219.75
2023-04-14T21:17:00.247Z,98226.06
2023-04-14T21:19:26.846Z,98224.78
2023-04-14T21:21:53.237Z,98229.22
2023-04-14T21:24:19.843Z,98223.47
2023-04-14T21:26:46.175Z,98238.38
2023-04-14T21:29:12.714Z,98243.22
2023-04-14T21:31:39.247Z,98247.06
2023-04-14T21:34:05.999Z,98248.38
2023-04-14T21:36:32.408Z,98259.69
2023-04-14T21:38:58.813Z,98268.06
2023-04-14T21:41:25.226Z,98290.59
2023-04-14T21:43:51.656Z,98287.66
2023-04-14T21:46:18.211Z,98306.09
2023-04-14T21:48:44.655Z,98314.75
2023-04-14T21:51:11.065Z,98322.22
2023-04-14T21:53:37.788Z,98326.84
2023-04-14T21:56:09.745Z,98331.84
2023-04-14T21:58:37.457Z,98343.94
2023-04-14T22:01:04.185Z,98351.06
2023-04-14T22:03:30.771Z,98359.16
2023-04-14T22:05:57.795Z,98355.69
2023-04-14T22:08:24.578Z,98357.84
2023-04-14T22:10:52.647Z,98362.66
2023-04-14T22:13:19.128Z,98363.81
2023-04-14T22:15:45.811Z,98373.59
2023-04-14T22:18:12.441Z,98364.16
2023-04-14T22:20:39.223Z,98383.50
2023-04-14T22:23:06.046Z,98379.22
2023-04-14T22:25:32.518Z,98392.59
2023-04-14T22:27:59.250Z,98407.16
2023-04-14T22:30:26.061Z,98408.31
2023-04-14T22:32:52.565Z,98419.91
2023-04-14T22:35:19.361Z,98415.63
2023-04-14T22:37:45.751Z,98418.94
2023-04-14T22:40:12.203Z,98445.56
2023-04-14T22:42:38.903Z,98458.78
2023-04-14T22:45:07.028Z,98484.69
2023-04-14T22:47:33.922Z,98494.63
2023-04-14T22:50:01.451Z,98508.50
2023-04-14T22:52:28.036Z,98514.97
2023-04-14T22:54:54.545Z,98509.16
2023-04-14T22:57:21.005Z,98515.47
2023-04-14T22:59:47.487Z,98516.28
2023-04-14T23:02:14.058Z,98520.41
2023-04-14T23:04:40.958Z,98516.59
2023-04-14T23:07:07.883Z,98518.25
2023-04-14T23:09:34.599Z,98517.41
2023-04-14T23:12:03.946Z,98520.69
2023-04-14T23:14:30.863Z,98531.59
2023-04-14T23:16:57.320Z,98526.66
2023-04-14T23:19:23.766Z,98531.94
2023-04-14T23:21:50.158Z,98526.97
2023-04-14T23:24:16.683Z,98523.97
2023-04-14T23:26:43.091Z,98522.66
2023-04-14T23:29:09.565Z,98530.22
2023-04-14T23:31:36.044Z,98531.53
2023-04-14T23:34:02.593Z,98542.59
2023-04-14T23:36:29.159Z,98538.78
2023-04-14T23:38:55.813Z,98548.03
2023-04-14T23:41:22.344Z,98558.72
2023-04-14T23:43:48.823Z,98554.59
2023-04-14T23:46:15.594Z,98559.22
2023-04-14T23:48:42.019Z,98564.66
2023-04-14T23:51:15.457Z,98569.47
2023-04-14T23:53:47.500Z,98566.84
2023-04-14T23:56:14.163Z,98571.13
2023-04-14T23:58:40.678Z,98566.50
